createdAt,value
2023-01-19T00:00:59.301Z,21.01
2023-01-19T00:03:26.747Z,21.04
2023-01-19T00:05:53.858Z,21.08
2023-01-19T00:08:20.962Z,21.08
2023-01-19T00:10:50.357Z,21.06
2023-01-19T00:13:17.566Z,21.07
2023-01-19T00:15:45.456Z,21.02
2023-01-19T00:18:12.560Z,21.00
2023-01-19T00:20:40.343Z,20.99
2023-01-19T00:23:07.731Z,21.00
2023-01-19T00:25:35.075Z,20.99
2023-01-19T00:28:03.618Z,21.03
2023-01-19T00:30:30.739Z,21.02
2023-01-19T00:32:58.363Z,20.99
2023-01-19T00:35:26.040Z,20.98
2023-01-19T00:37:53.161Z,20.96
2023-01-19T00:40:20.216Z,20.90
2023-01-19T00:42:47.291Z,20.86
2023-01-19T00:45:17.458Z,20.87
2023-01-19T00:47:45.366Z,20.84
2023-01-19T00:50:13.914Z,20.85
2023-01-19T00:52:41.242Z,20.87
2023-01-19T00:55:09.928Z,20.93
2023-01-19T00:57:37.120Z,20.97
2023-01-19T01:00:05.927Z,20.79
2023-01-19T01:02:34.566Z,20.97
2023-01-19T01:05:01.734Z,20.96
2023-01-19T01:07:29.958Z,20.94
2023-01-19T01:09:57.049Z,20.95
2023-01-19T01:12:24.264Z,20.91
2023-01-19T01:14:51.380Z,20.93
2023-01-19T01:17:18.702Z,20.89
2023-01-19T01:19:47.345Z,20.89
2023-01-19T01:22:14.435Z,20.90
2023-01-19T01:24:41.522Z,20.89
2023-01-19T01:27:08.771Z,20.90
2023-01-19T01:29:35.879Z,20.89
2023-01-19T01:32:02.952Z,20.80
2023-01-19T01:34:30.125Z,20.78
2023-01-19T01:36:58.621Z,20.76
2023-01-19T01:39:25.826Z,20.74
2023-01-19T01:41:52.882Z,20.78
2023-01-19T01:44:46.511Z,20.78
2023-01-19T01:47:14.068Z,20.70
2023-01-19T01:49:41.434Z,20.77
2023-01-19T01:52:10.943Z,20.82
2023-01-19T01:54:38.085Z,20.89
2023-01-19T01:57:08.804Z,20.81
2023-01-19T01:59:39.001Z,20.84
2023-01-19T02:02:10.164Z,20.82
2023-01-19T02:04:38.471Z,20.81
2023-01-19T02:07:05.744Z,20.81
2023-01-19T02:09:36.883Z,20.75
2023-01-19T02:12:04.878Z,20.81
2023-01-19T02:14:32.115Z,20.79
2023-01-19T02:16:59.283Z,20.79
2023-01-19T02:19:31.007Z,20.74
2023-01-19T02:22:04.156Z,20.80
2023-01-19T02:24:32.710Z,20.77
2023-01-19T02:27:00.247Z,20.73
2023-01-19T02:29:28.718Z,20.71
2023-01-19T02:31:56.007Z,20.67
2023-01-19T02:34:23.259Z,20.62
2023-01-19T02:36:53.804Z,20.65
2023-01-19T02:39:27.024Z,20.68
2023-01-19T02:42:00.368Z,21.11
2023-01-19T02:44:29.705Z,21.45
2023-01-19T02:46:57.001Z,21.83
2023-01-19T02:49:27.827Z,22.08
2023-01-19T02:51:55.007Z,22.23
2023-01-19T02:54:43.885Z,22.36
2023-01-19T02:57:29.079Z,22.40
2023-01-19T03:00:13.081Z,22.40
2023-01-19T03:02:54.365Z,22.35
2023-01-19T03:05:32.949Z,22.32
2023-01-19T03:08:11.858Z,22.24
2023-01-19T03:10:47.471Z,22.21
2023-01-19T03:13:24.401Z,22.16
2023-01-19T03:15:57.078Z,22.11
2023-01-19T03:18:27.689Z,21.98
2023-01-19T03:20:59.703Z,21.98
2023-01-19T03:23:31.326Z,21.88
2023-01-19T03:26:01.436Z,21.91
2023-01-19T03:28:30.759Z,21.88
2023-01-19T03:31:01.824Z,21.79
2023-01-19T03:33:32.839Z,21.76
2023-01-19T03:36:04.927Z,21.69
2023-01-19T03:38:37.358Z,21.72
2023-01-19T03:41:09.479Z,21.74
2023-01-19T03:43:40.086Z,21.77
2023-01-19T03:46:08.586Z,21.69
2023-01-19T03:48:35.775Z,21.78
2023-01-19T03:51:04.665Z,21.66
2023-01-19T03:53:31.760Z,21.74
2023-01-19T03:55:59.070Z,21.72
2023-01-19T03:58:26.151Z,21.72
2023-01-19T04:00:54.684Z,21.78
2023-01-19T04:03:21.839Z,21.92
2023-01-19T04:05:48.888Z,22.14
2023-01-19T04:08:15.970Z,22.35
2023-01-19T04:10:43.115Z,22.48
2023-01-19T04:13:10.209Z,22.58
2023-01-19T04:15:37.313Z,22.53
2023-01-19T04:18:06.118Z,22.48
2023-01-19T04:20:33.252Z,22.37
2023-01-19T04:23:01.933Z,22.38
2023-01-19T04:25:29.508Z,22.33
2023-01-19T04:27:56.781Z,22.33
2023-01-19T04:30:24.545Z,22.29
2023-01-19T04:32:51.621Z,22.27
2023-01-19T04:35:20.008Z,22.20
2023-01-19T04:37:47.072Z,22.20
2023-01-19T04:40:14.398Z,21.90
2023-01-19T04:42:43.231Z,22.14
2023-01-19T04:45:11.330Z,22.11
2023-01-19T04:47:38.609Z,22.12
2023-01-19T04:50:07.322Z,22.11
2023-01-19T04:52:36.273Z,22.10
2023-01-19T04:55:04.259Z,22.01
2023-01-19T04:57:31.748Z,22.05
2023-01-19T04:59:59.176Z,21.92
2023-01-19T05:02:26.281Z,21.79
2023-01-19T05:04:53.473Z,22.08
2023-01-19T05:07:20.561Z,21.98
2023-01-19T05:09:48.996Z,21.88
2023-01-19T05:12:16.286Z,21.87
2023-01-19T05:14:43.397Z,21.80
2023-01-19T05:17:10.560Z,21.78
2023-01-19T05:19:37.776Z,21.70
2023-01-19T05:22:05.849Z,21.78
2023-01-19T05:24:33.061Z,21.92
2023-01-19T05:27:01.682Z,21.99
2023-01-19T05:29:28.744Z,22.10
2023-01-19T05:31:55.841Z,22.09
2023-01-19T05:34:22.945Z,22.01
2023-01-19T05:36:50.007Z,22.02
2023-01-19T05:39:17.219Z,21.88
2023-01-19T05:41:44.309Z,22.00
2023-01-19T05:44:12.882Z,21.91
2023-01-19T05:46:40.467Z,21.82
2023-01-19T05:49:07.887Z,21.88
2023-01-19T05:51:35.787Z,21.84
2023-01-19T05:54:02.913Z,21.81
2023-01-19T05:56:30.025Z,21.82
2023-01-19T05:58:57.121Z,21.75
2023-01-19T06:01:26.179Z,21.72
2023-01-19T06:03:53.262Z,21.67
2023-01-19T06:06:20.460Z,21.60
2023-01-19T06:08:47.685Z,21.59
2023-01-19T06:11:14.825Z,21.60
2023-01-19T06:13:42.271Z,21.62
2023-01-19T06:16:10.023Z,21.56
2023-01-19T06:18:38.924Z,21.59
2023-01-19T06:21:07.341Z,21.61
2023-01-19T06:23:36.227Z,21.52
2023-01-19T06:26:03.895Z,21.62
2023-01-19T06:28:31.033Z,21.56
2023-01-19T06:30:58.232Z,21.56
2023-01-19T06:33:25.985Z,21.52
2023-01-19T06:35:54.923Z,21.49
2023-01-19T06:38:22.217Z,21.49
2023-01-19T06:40:52.899Z,21.44
2023-01-19T06:43:20.444Z,21.45
2023-01-19T06:45:48.054Z,21.47
2023-01-19T06:48:15.164Z,21.42
2023-01-19T06:50:45.010Z,21.46
2023-01-19T06:53:13.934Z,21.41
2023-01-19T06:55:41.289Z,21.36
2023-01-19T06:58:08.941Z,21.31
2023-01-19T07:00:36.046Z,21.32
2023-01-19T07:03:03.516Z,21.30
2023-01-19T07:05:30.847Z,21.27
2023-01-19T07:07:58.046Z,21.28
2023-01-19T07:10:26.660Z,21.24
2023-01-19T07:13:13.785Z,21.32
2023-01-19T07:15:41.502Z,21.34
2023-01-19T07:18:08.769Z,21.32
2023-01-19T07:20:36.380Z,21.33
2023-01-19T07:23:04.055Z,21.29
2023-01-19T07:25:32.474Z,21.34
2023-01-19T07:28:00.267Z,21.35
2023-01-19T07:30:28.244Z,21.27
2023-01-19T07:32:56.084Z,21.28
2023-01-19T07:35:23.398Z,21.26
2023-01-19T07:37:50.808Z,21.28
2023-01-19T07:40:18.089Z,21.26
2023-01-19T07:42:50.417Z,21.28
2023-01-19T07:45:18.514Z,21.26
2023-01-19T07:47:46.026Z,21.25
2023-01-19T07:50:13.148Z,21.19
2023-01-19T07:52:40.581Z,21.15
2023-01-19T07:55:08.991Z,21.12
2023-01-19T07:57:36.372Z,21.10
2023-01-19T08:00:05.928Z,21.11
2023-01-19T08:02:33.040Z,21.11
2023-01-19T08:05:00.151Z,21.08
2023-01-19T08:07:27.412Z,21.13
2023-01-19T08:09:54.501Z,21.18
2023-01-19T08:12:21.589Z,21.21
2023-01-19T08:14:48.671Z,21.20
2023-01-19T08:17:17.108Z,21.18
2023-01-19T08:19:44.204Z,21.10
2023-01-19T08:22:11.263Z,21.21
2023-01-19T08:24:38.417Z,21.19
2023-01-19T08:27:06.096Z,21.18
2023-01-19T08:29:33.172Z,21.14
2023-01-19T08:32:00.352Z,21.16
2023-01-19T08:34:29.131Z,21.17
2023-01-19T08:36:56.280Z,21.16
2023-01-19T08:39:23.346Z,21.15
2023-01-19T08:41:51.182Z,21.06
2023-01-19T08:44:18.491Z,21.06
2023-01-19T08:46:45.630Z,21.00
2023-01-19T08:49:12.894Z,21.05
2023-01-19T08:51:41.346Z,21.03
2023-01-19T08:54:08.502Z,21.02
2023-01-19T08:56:35.606Z,21.02
2023-01-19T08:59:09.780Z,20.99
2023-01-19T09:01:37.767Z,21.12
2023-01-19T09:04:05.463Z,21.15
2023-01-19T09:06:32.603Z,21.11
2023-01-19T09:09:01.262Z,21.07
2023-01-19T09:11:28.450Z,20.77
2023-01-19T09:13:55.535Z,21.08
2023-01-19T09:16:22.666Z,21.00
2023-01-19T09:18:49.754Z,20.99
2023-01-19T09:21:16.851Z,21.06
2023-01-19T09:23:43.979Z,21.06
2023-01-19T09:26:12.470Z,21.11
2023-01-19T09:28:39.554Z,21.11
2023-01-19T09:31:07.815Z,21.14
2023-01-19T09:33:35.063Z,21.12
2023-01-19T09:36:02.166Z,21.13
2023-01-19T09:38:29.362Z,21.10
2023-01-19T09:40:56.840Z,21.07
2023-01-19T09:43:34.860Z,21.08
2023-01-19T09:46:03.753Z,21.07
2023-01-19T09:48:42.156Z,21.01
2023-01-19T09:51:15.465Z,21.03
2023-01-19T09:53:52.391Z,21.08
2023-01-19T09:56:20.516Z,21.12
2023-01-19T09:58:50.277Z,21.15
2023-01-19T10:01:37.918Z,21.13
2023-01-19T10:04:34.208Z,21.11
2023-01-19T10:07:18.567Z,20.94
2023-01-19T10:10:11.243Z,21.09
2023-01-19T10:12:48.801Z,21.13
2023-01-19T10:15:29.228Z,21.12
2023-01-19T10:18:11.923Z,21.09
2023-01-19T10:20:43.387Z,21.15
2023-01-19T10:23:24.209Z,21.16
2023-01-19T10:25:52.088Z,21.25
2023-01-19T10:28:25.429Z,21.29
2023-01-19T10:30:55.185Z,21.19
2023-01-19T10:33:22.372Z,21.15
2023-01-19T10:35:49.751Z,21.07
2023-01-19T10:38:17.865Z,21.15
2023-01-19T10:40:52.161Z,21.15
2023-01-19T10:43:37.641Z,21.16
2023-01-19T10:46:20.500Z,21.24
2023-01-19T10:48:50.053Z,21.23
2023-01-19T10:51:17.568Z,21.24
2023-01-19T10:53:57.110Z,21.28
2023-01-19T10:56:27.580Z,21.29
2023-01-19T10:58:54.667Z,21.25
2023-01-19T11:01:25.167Z,21.27
2023-01-19T11:03:53.540Z,21.32
2023-01-19T11:06:23.593Z,21.30
2023-01-19T11:08:53.053Z,21.15
2023-01-19T11:11:21.843Z,21.18
2023-01-19T11:14:04.887Z,21.27
2023-01-19T11:16:35.101Z,21.32
2023-01-19T11:19:02.509Z,21.31
2023-01-19T11:21:31.910Z,21.32
2023-01-19T11:24:02.185Z,21.23
2023-01-19T11:26:32.845Z,21.21
2023-01-19T11:29:02.149Z,21.22
2023-01-19T11:31:35.741Z,21.29
2023-01-19T11:34:04.445Z,21.28
2023-01-19T11:36:33.625Z,21.28
2023-01-19T11:39:19.206Z,21.37
2023-01-19T11:41:50.713Z,21.39
2023-01-19T11:44:21.863Z,21.37
2023-01-19T11:46:54.591Z,21.31
2023-01-19T11:49:29.780Z,21.27
2023-01-19T11:52:06.546Z,21.23
2023-01-19T11:54:40.039Z,21.23
2023-01-19T11:57:13.569Z,21.19
2023-01-19T11:59:40.890Z,21.22
2023-01-19T12:02:21.644Z,21.26
2023-01-19T12:04:50.535Z,21.24
2023-01-19T12:07:24.338Z,21.22
2023-01-19T12:09:54.032Z,21.21
2023-01-19T12:12:28.725Z,21.22
2023-01-19T12:15:02.305Z,21.18
2023-01-19T12:17:35.120Z,21.12
2023-01-19T12:20:13.669Z,21.19
2023-01-19T12:22:45.573Z,21.14
2023-01-19T12:25:20.919Z,21.23
2023-01-19T12:27:49.447Z,21.19
2023-01-19T12:30:20.377Z,21.24
2023-01-19T12:32:49.009Z,21.28
2023-01-19T12:35:53.319Z,21.34
2023-01-19T12:38:32.277Z,21.30
2023-01-19T12:41:18.531Z,21.27
2023-01-19T12:43:46.232Z,21.31
2023-01-19T12:46:24.283Z,21.27
2023-01-19T12:48:53.384Z,21.22
2023-01-19T12:51:24.197Z,21.22
2023-01-19T12:53:53.131Z,21.23
2023-01-19T12:56:27.434Z,21.18
2023-01-19T12:58:54.436Z,21.19
2023-01-19T13:01:21.548Z,21.20
2023-01-19T13:04:02.397Z,21.21
2023-01-19T13:07:07.879Z,21.16
2023-01-19T13:09:37.697Z,21.07
2023-01-19T13:12:21.380Z,21.11
2023-01-19T13:14:48.775Z,21.11
2023-01-19T13:17:24.508Z,21.09
2023-01-19T13:20:00.685Z,21.08
2023-01-19T13:23:09.414Z,21.12
2023-01-19T13:25:36.637Z,21.21
2023-01-19T13:28:10.053Z,21.22
2023-01-19T13:30:46.541Z,21.11
2023-01-19T13:33:19.720Z,21.22
2023-01-19T13:35:54.437Z,21.18
2023-01-19T13:38:23.599Z,21.13
2023-01-19T13:40:51.709Z,21.15
2023-01-19T13:43:25.299Z,21.15
2023-01-19T13:45:53.621Z,21.13
2023-01-19T13:48:22.745Z,21.10
2023-01-19T13:51:02.852Z,21.14
2023-01-19T13:53:30.164Z,21.13
2023-01-19T13:56:08.557Z,21.12
2023-01-19T13:58:35.685Z,21.02
2023-01-19T14:01:02.797Z,21.06
2023-01-19T14:03:30.135Z,21.02
2023-01-19T14:05:57.316Z,21.02
2023-01-19T14:08:25.838Z,20.96
2023-01-19T14:11:02.881Z,20.99
2023-01-19T14:13:31.900Z,21.00
2023-01-19T14:16:04.119Z,21.00
2023-01-19T14:18:32.743Z,21.01
2023-01-19T14:21:01.950Z,21.06
2023-01-19T14:23:42.409Z,21.06
2023-01-19T14:26:44.288Z,21.07
2023-01-19T14:29:26.019Z,21.06
2023-01-19T14:32:05.944Z,21.02
2023-01-19T14:34:35.873Z,21.03
2023-01-19T14:37:04.727Z,21.03
2023-01-19T14:39:34.917Z,21.02
2023-01-19T14:42:04.863Z,21.03
2023-01-19T14:44:36.150Z,21.02
2023-01-19T14:47:03.970Z,20.99
2023-01-19T14:49:34.170Z,20.96
2023-01-19T14:52:03.496Z,20.95
2023-01-19T14:54:37.144Z,21.00
2023-01-19T14:57:04.597Z,20.87
2023-01-19T14:59:31.719Z,20.86
2023-01-19T15:01:58.980Z,20.87
2023-01-19T15:04:26.133Z,20.90
2023-01-19T15:06:55.204Z,20.87
2023-01-19T15:09:23.039Z,20.87
2023-01-19T15:11:52.507Z,20.91
2023-01-19T15:14:21.038Z,20.92
2023-01-19T15:16:48.900Z,20.93
2023-01-19T15:19:17.334Z,20.94
2023-01-19T15:21:44.847Z,20.96
2023-01-19T15:24:12.846Z,20.94
2023-01-19T15:26:42.074Z,20.92
2023-01-19T15:29:16.750Z,20.91
2023-01-19T15:31:43.865Z,20.81
2023-01-19T15:34:12.455Z,20.90
2023-01-19T15:36:39.748Z,20.89
2023-01-19T15:39:06.822Z,20.92
2023-01-19T15:41:34.779Z,20.87
2023-01-19T15:44:01.903Z,20.83
2023-01-19T15:46:30.300Z,20.87
2023-01-19T15:48:57.460Z,20.85
2023-01-19T15:51:26.093Z,20.79
2023-01-19T15:53:54.647Z,20.77
2023-01-19T15:56:23.709Z,20.75
2023-01-19T15:58:51.603Z,20.78
2023-01-19T16:01:20.506Z,20.77
2023-01-19T16:03:49.579Z,20.72
2023-01-19T16:06:18.110Z,20.73
2023-01-19T16:08:45.255Z,20.83
2023-01-19T16:11:14.165Z,20.85
2023-01-19T16:13:44.943Z,20.86
2023-01-19T16:16:15.050Z,20.83
2023-01-19T16:18:42.167Z,20.81
2023-01-19T16:21:10.878Z,20.82
2023-01-19T16:23:37.951Z,20.81
2023-01-19T16:26:07.287Z,20.75
2023-01-19T16:28:35.840Z,20.77
2023-01-19T16:31:03.511Z,20.80
2023-01-19T16:33:30.609Z,20.80
2023-01-19T16:35:57.700Z,20.79
2023-01-19T16:38:26.111Z,20.75
2023-01-19T16:40:53.185Z,20.71
2023-01-19T16:43:20.275Z,20.70
2023-01-19T16:45:58.872Z,20.65
2023-01-19T16:48:26.719Z,20.59
2023-01-19T16:51:04.657Z,20.62
2023-01-19T16:53:34.006Z,20.63
2023-01-19T16:56:04.570Z,20.61
2023-01-19T16:58:32.142Z,20.68
2023-01-19T17:00:59.429Z,20.64
2023-01-19T17:03:26.565Z,20.71
2023-01-19T17:05:53.668Z,20.73
2023-01-19T17:08:20.798Z,20.73
2023-01-19T17:10:49.402Z,20.68
2023-01-19T17:13:16.508Z,20.74
2023-01-19T17:15:43.618Z,20.65
2023-01-19T17:18:10.738Z,20.74
2023-01-19T17:20:37.865Z,20.71
2023-01-19T17:23:04.994Z,20.72
2023-01-19T17:25:32.061Z,20.69
2023-01-19T17:28:00.505Z,20.68
2023-01-19T17:30:27.707Z,20.67
2023-01-19T17:32:54.903Z,20.68
2023-01-19T17:35:21.978Z,20.64
2023-01-19T17:37:52.909Z,20.61
2023-01-19T17:40:20.255Z,20.58
2023-01-19T17:42:47.308Z,20.57
2023-01-19T17:45:15.813Z,20.47
2023-01-19T17:47:43.135Z,20.56
2023-01-19T17:50:11.241Z,20.72
2023-01-19T17:52:38.576Z,21.02
2023-01-19T17:55:06.522Z,21.36
2023-01-19T17:57:33.615Z,21.75
2023-01-19T18:00:01.061Z,22.16
2023-01-19T18:02:29.499Z,22.50
2023-01-19T18:04:56.627Z,22.76
2023-01-19T18:07:23.780Z,22.93
2023-01-19T18:09:50.921Z,22.95
2023-01-19T18:12:18.242Z,22.94
2023-01-19T18:14:45.400Z,22.94
2023-01-19T18:17:12.462Z,22.87
2023-01-19T18:19:40.940Z,22.82
2023-01-19T18:22:08.091Z,22.76
2023-01-19T18:24:35.407Z,22.72
2023-01-19T18:27:02.475Z,22.64
2023-01-19T18:29:29.628Z,22.59
2023-01-19T18:31:56.761Z,22.41
2023-01-19T18:34:23.881Z,22.30
2023-01-19T18:36:52.437Z,22.25
2023-01-19T18:39:19.756Z,22.21
2023-01-19T18:41:46.838Z,22.20
2023-01-19T18:44:13.928Z,22.17
2023-01-19T18:46:41.132Z,22.20
2023-01-19T18:49:08.260Z,22.23
2023-01-19T18:51:35.443Z,22.27
2023-01-19T18:54:04.111Z,22.15
2023-01-19T18:56:31.222Z,22.15
2023-01-19T18:58:58.326Z,22.06
2023-01-19T19:01:27.470Z,22.02
2023-01-19T19:03:55.701Z,21.95
2023-01-19T19:06:24.080Z,21.95
2023-01-19T19:08:52.051Z,21.93
2023-01-19T19:11:22.428Z,21.79
2023-01-19T19:13:52.511Z,21.83
2023-01-19T19:16:19.785Z,21.82
2023-01-19T19:18:47.280Z,21.84
2023-01-19T19:21:14.418Z,21.82
2023-01-19T19:23:41.591Z,21.76
2023-01-19T19:26:10.655Z,21.74
2023-01-19T19:28:40.445Z,21.85
2023-01-19T19:31:09.822Z,21.77
2023-01-19T19:33:38.389Z,21.66
2023-01-19T19:36:06.764Z,21.49
2023-01-19T19:38:34.311Z,21.50
2023-01-19T19:41:04.948Z,21.53
2023-01-19T19:43:32.735Z,21.58
2023-01-19T19:46:03.197Z,21.66
2023-01-19T19:48:30.460Z,21.61
2023-01-19T19:51:17.007Z,21.60
2023-01-19T19:53:45.682Z,21.50
2023-01-19T19:56:13.091Z,21.48
2023-01-19T19:58:41.556Z,21.43
2023-01-19T20:01:11.616Z,21.43
2023-01-19T20:03:39.483Z,21.43
2023-01-19T20:06:08.601Z,21.41
2023-01-19T20:08:36.357Z,21.43
2023-01-19T20:11:05.367Z,21.38
2023-01-19T20:13:32.816Z,21.35
2023-01-19T20:16:00.998Z,21.28
2023-01-19T20:18:29.854Z,21.03
2023-01-19T20:20:57.068Z,21.28
2023-01-19T20:23:24.289Z,21.28
2023-01-19T20:25:51.551Z,21.27
2023-01-19T20:28:19.783Z,21.19
2023-01-19T20:30:46.940Z,21.30
2023-01-19T20:33:14.072Z,21.26
2023-01-19T20:35:42.485Z,21.36
2023-01-19T20:38:09.568Z,21.36
2023-01-19T20:40:36.661Z,21.35
2023-01-19T20:43:03.762Z,21.33
2023-01-19T20:45:30.855Z,21.32
2023-01-19T20:47:57.986Z,21.32
2023-01-19T20:50:25.048Z,21.31
2023-01-19T20:52:53.440Z,21.32
2023-01-19T20:55:20.538Z,21.29
2023-01-19T20:57:47.627Z,21.30
2023-01-19T21:00:15.297Z,21.29
2023-01-19T21:02:42.579Z,21.29
2023-01-19T21:05:10.336Z,21.30
2023-01-19T21:07:37.635Z,21.22
2023-01-19T21:10:06.554Z,21.16
2023-01-19T21:12:33.619Z,21.14
2023-01-19T21:15:00.969Z,21.12
2023-01-19T21:17:28.087Z,21.12
2023-01-19T21:19:55.175Z,21.11
2023-01-19T21:22:22.250Z,21.11
2023-01-19T21:24:49.350Z,21.12
2023-01-19T21:27:17.744Z,21.06
2023-01-19T21:29:44.831Z,21.13
2023-01-19T21:32:11.915Z,21.19
2023-01-19T21:34:39.079Z,21.18
2023-01-19T21:37:06.156Z,21.19
2023-01-19T21:39:33.291Z,21.16
2023-01-19T21:42:00.564Z,21.15
2023-01-19T21:44:29.015Z,21.14
2023-01-19T21:46:56.099Z,21.13
2023-01-19T21:49:23.150Z,21.11
2023-01-19T21:51:50.291Z,21.12
2023-01-19T21:54:17.632Z,21.08
2023-01-19T21:56:44.877Z,21.12
2023-01-19T21:59:13.688Z,21.03
2023-01-19T22:01:44.496Z,21.04
2023-01-19T22:04:11.831Z,21.01
2023-01-19T22:06:39.361Z,21.01
2023-01-19T22:09:06.661Z,20.96
2023-01-19T22:11:33.771Z,20.95
2023-01-19T22:14:00.903Z,20.89
2023-01-19T22:16:29.211Z,20.95
2023-01-19T22:19:00.146Z,21.02
2023-01-19T22:21:29.292Z,21.03
2023-01-19T22:23:57.981Z,21.07
2023-01-19T22:26:25.584Z,21.01
2023-01-19T22:28:53.815Z,21.03
2023-01-19T22:31:21.039Z,20.96
2023-01-19T22:33:48.330Z,21.04
2023-01-19T22:36:19.076Z,21.02
2023-01-19T22:38:49.542Z,20.94
2023-01-19T22:41:19.273Z,20.99
2023-01-19T22:43:46.765Z,20.93
2023-01-19T22:46:17.572Z,21.00
2023-01-19T22:48:44.954Z,20.97
2023-01-19T22:51:12.053Z,20.98
2023-01-19T22:53:40.776Z,20.93
2023-01-19T22:56:12.331Z,20.93
2023-01-19T22:58:39.491Z,20.90
2023-01-19T23:01:07.655Z,20.83
2023-01-19T23:03:35.231Z,20.87
2023-01-19T23:06:03.704Z,20.87
2023-01-19T23:08:30.815Z,20.84
2023-01-19T23:10:59.317Z,20.86
2023-01-19T23:13:26.395Z,20.89
2023-01-19T23:15:53.566Z,20.92
2023-01-19T23:18:20.687Z,20.94
2023-01-19T23:20:47.809Z,20.93
2023-01-19T23:23:15.065Z,20.94
2023-01-19T23:25:42.147Z,20.96
2023-01-19T23:28:10.572Z,20.96
2023-01-19T23:30:37.842Z,20.93
2023-01-19T23:33:05.070Z,20.91
2023-01-19T23:35:34.571Z,20.94
2023-01-19T23:38:01.660Z,20.90
2023-01-19T23:40:28.753Z,20.90
2023-01-19T23:42:55.859Z,20.90
2023-01-19T23:45:24.333Z,20.89
2023-01-19T23:47:51.469Z,20.89
2023-01-19T23:50:18.591Z,20.85
2023-01-19T23:52:45.683Z,20.78
2023-01-19T23:55:13.171Z,20.78
2023-01-19T23:57:40.417Z,20.76
